sensor_id;sensor_type;location;lat;lon;timestamp;temperature;humidity
21197;DHT22;10756;51.014;3.786;2022-08-03T00:02:22;21.20;99.90
21197;DHT22;10756;51.014;3.786;2022-08-03T00:04:48;21.20;99.90
21197;DHT22;10756;51.014;3.786;2022-08-03T00:07:14;21.10;99.90
21197;DHT22;10756;51.014;3.786;2022-08-03T00:09:39;21.00;99.90
21197;DHT22;10756;51.014;3.786;2022-08-03T00:12:05;20.80;99.90
21197;DHT22;10756;51.014;3.786;2022-08-03T00:14:31;20.80;99.90
21197;DHT22;10756;51.014;3.786;2022-08-03T00:16:57;20.70;99.90
21197;DHT22;10756;51.014;3.786;2022-08-03T00:19:22;20.60;99.90
21197;DHT22;10756;51.014;3.786;2022-08-03T00:21:48;20.60;99.90
21197;DHT22;10756;51.014;3.786;2022-08-03T00:24:14;20.50;99.90
21197;DHT22;10756;51.014;3.786;2022-08-03T00:26:39;20.50;99.90
21197;DHT22;10756;51.014;3.786;2022-08-03T00:29:05;20.60;99.90
21197;DHT22;10756;51.014;3.786;2022-08-03T00:31:30;20.40;99.90
21197;DHT22;10756;51.014;3.786;2022-08-03T00:33:56;20.50;99.90
21197;DHT22;10756;51.014;3.786;2022-08-03T00:36:22;20.60;99.90
21197;DHT22;10756;51.014;3.786;2022-08-03T00:38:47;20.80;99.90
21197;DHT22;10756;51.014;3.786;2022-08-03T00:41:13;20.80;99.90
21197;DHT22;10756;51.014;3.786;2022-08-03T00:43:38;20.70;99.90
21197;DHT22;10756;51.014;3.786;2022-08-03T00:46:04;20.60;99.90
21197;DHT22;10756;51.014;3.786;2022-08-03T00:48:30;20.60;99.90
21197;DHT22;10756;51.014;3.786;2022-08-03T00:50:56;20.60;99.90
21197;DHT22;10756;51.014;3.786;2022-08-03T00:53:22;20.60;99.90
21197;DHT22;10756;51.014;3.786;2022-08-03T00:55:51;20.60;99.90
21197;DHT22;10756;51.014;3.786;2022-08-03T00:58:17;20.30;99.90
21197;DHT22;10756;51.014;3.786;2022-08-03T01:00:42;20.30;99.90
21197;DHT22;10756;51.014;3.786;2022-08-03T01:03:09;20.30;99.90
21197;DHT22;10756;51.014;3.786;2022-08-03T01:13:56;20.40;99.90
21197;DHT22;10756;51.014;3.786;2022-08-03T01:16:31;20.40;99.90
21197;DHT22;10756;51.014;3.786;2022-08-03T01:19:29;20.40;99.90
21197;DHT22;10756;51.014;3.786;2022-08-03T01:27:10;20.50;99.90
21197;DHT22;10756;51.014;3.786;2022-08-03T01:29:49;20.40;99.90
21197;DHT22;10756;51.014;3.786;2022-08-03T01:32:20;20.30;99.90
21197;DHT22;10756;51.014;3.786;2022-08-03T01:34:50;20.30;99.90
21197;DHT22;10756;51.014;3.786;2022-08-03T01:37:23;20.20;99.90
21197;DHT22;10756;51.014;3.786;2022-08-03T01:39:50;20.10;99.90
21197;DHT22;10756;51.014;3.786;2022-08-03T01:42:16;19.90;99.90
21197;DHT22;10756;51.014;3.786;2022-08-03T01:44:44;19.90;99.90
21197;DHT22;10756;51.014;3.786;2022-08-03T01:47:13;19.80;99.90
21197;DHT22;10756;51.014;3.786;2022-08-03T01:49:42;19.90;99.90
21197;DHT22;10756;51.014;3.786;2022-08-03T01:52:10;19.80;99.90
21197;DHT22;10756;51.014;3.786;2022-08-03T01:54:42;19.90;99.90
21197;DHT22;10756;51.014;3.786;2022-08-03T01:57:09;19.90;99.90
21197;DHT22;10756;51.014;3.786;2022-08-03T01:59:36;19.90;99.90
21197;DHT22;10756;51.014;3.786;2022-08-03T02:02:04;19.90;99.90
21197;DHT22;10756;51.014;3.786;2022-08-03T02:04:30;20.00;99.90
21197;DHT22;10756;51.014;3.786;2022-08-03T02:06:57;20.10;99.90
21197;DHT22;10756;51.014;3.786;2022-08-03T02:09:24;20.10;99.90
21197;DHT22;10756;51.014;3.786;2022-08-03T02:11:52;20.10;99.90
21197;DHT22;10756;51.014;3.786;2022-08-03T02:14:19;20.00;99.90
21197;DHT22;10756;51.014;3.786;2022-08-03T02:16:46;20.00;99.90
21197;DHT22;10756;51.014;3.786;2022-08-03T02:19:13;19.90;99.90
21197;DHT22;10756;51.014;3.786;2022-08-03T02:21:42;20.10;99.90
21197;DHT22;10756;51.014;3.786;2022-08-03T02:24:10;20.20;99.90
21197;DHT22;10756;51.014;3.786;2022-08-03T02:26:37;20.20;99.90
21197;DHT22;10756;51.014;3.786;2022-08-03T02:29:12;20.30;99.90
21197;DHT22;10756;51.014;3.786;2022-08-03T02:31:42;20.20;99.90
21197;DHT22;10756;51.014;3.786;2022-08-03T02:34:12;20.30;99.90
21197;DHT22;10756;51.014;3.786;2022-08-03T02:36:54;20.30;99.90
21197;DHT22;10756;51.014;3.786;2022-08-03T02:39:23;20.10;99.90
21197;DHT22;10756;51.014;3.786;2022-08-03T02:42:14;20.20;99.90
21197;DHT22;10756;51.014;3.786;2022-08-03T02:44:45;20.10;99.90
21197;DHT22;10756;51.014;3.786;2022-08-03T02:47:17;20.00;99.90
21197;DHT22;10756;51.014;3.786;2022-08-03T02:49:47;20.00;99.90
21197;DHT22;10756;51.014;3.786;2022-08-03T02:52:14;19.90;99.90
21197;DHT22;10756;51.014;3.786;2022-08-03T02:54:40;19.80;99.90
21197;DHT22;10756;51.014;3.786;2022-08-03T02:57:07;19.70;99.90
21197;DHT22;10756;51.014;3.786;2022-08-03T02:59:35;19.60;99.90
21197;DHT22;10756;51.014;3.786;2022-08-03T03:02:02;19.30;99.90
21197;DHT22;10756;51.014;3.786;2022-08-03T03:04:29;19.50;99.90
21197;DHT22;10756;51.014;3.786;2022-08-03T03:06:56;19.70;99.90
21197;DHT22;10756;51.014;3.786;2022-08-03T03:09:23;19.70;99.90
21197;DHT22;10756;51.014;3.786;2022-08-03T03:11:59;19.70;99.90
21197;DHT22;10756;51.014;3.786;2022-08-03T03:14:30;19.60;99.90
21197;DHT22;10756;51.014;3.786;2022-08-03T03:16:57;19.60;99.90
21197;DHT22;10756;51.014;3.786;2022-08-03T03:19:23;19.60;99.90
21197;DHT22;10756;51.014;3.786;2022-08-03T03:21:50;19.60;99.90
21197;DHT22;10756;51.014;3.786;2022-08-03T03:24:17;19.70;99.90
21197;DHT22;10756;51.014;3.786;2022-08-03T03:26:43;19.70;99.90
21197;DHT22;10756;51.014;3.786;2022-08-03T03:29:09;19.70;99.90
21197;DHT22;10756;51.014;3.786;2022-08-03T03:31:35;19.70;99.90
21197;DHT22;10756;51.014;3.786;2022-08-03T03:34:01;19.70;99.90
21197;DHT22;10756;51.014;3.786;2022-08-03T03:36:27;19.70;99.90
21197;DHT22;10756;51.014;3.786;2022-08-03T03:38:53;19.80;99.90
21197;DHT22;10756;51.014;3.786;2022-08-03T03:41:18;19.70;99.90
21197;DHT22;10756;51.014;3.786;2022-08-03T03:43:44;19.70;99.90
21197;DHT22;10756;51.014;3.786;2022-08-03T03:46:13;19.60;99.90
21197;DHT22;10756;51.014;3.786;2022-08-03T03:48:39;19.50;99.90
21197;DHT22;10756;51.014;3.786;2022-08-03T03:51:06;19.60;99.90
21197;DHT22;10756;51.014;3.786;2022-08-03T03:53:31;19.50;99.90
21197;DHT22;10756;51.014;3.786;2022-08-03T03:55:57;19.50;99.90
21197;DHT22;10756;51.014;3.786;2022-08-03T03:58:23;19.60;99.90
21197;DHT22;10756;51.014;3.786;2022-08-03T04:00:49;19.40;99.90
21197;DHT22;10756;51.014;3.786;2022-08-03T04:03:14;19.50;99.90
21197;DHT22;10756;51.014;3.786;2022-08-03T04:05:40;19.50;99.90
21197;DHT22;10756;51.014;3.786;2022-08-03T04:08:17;19.40;99.90
21197;DHT22;10756;51.014;3.786;2022-08-03T04:11:06;19.50;99.90
21197;DHT22;10756;51.014;3.786;2022-08-03T04:13:41;19.40;99.90
21197;DHT22;10756;51.014;3.786;2022-08-03T04:16:09;19.20;99.90
21197;DHT22;10756;51.014;3.786;2022-08-03T04:18:37;19.10;99.90
21197;DHT22;10756;51.014;3.786;2022-08-03T04:21:07;19.10;99.90
21197;DHT22;10756;51.014;3.786;2022-08-03T04:23:38;19.20;99.90
21197;DHT22;10756;51.014;3.786;2022-08-03T04:26:07;19.10;99.90
21197;DHT22;10756;51.014;3.786;2022-08-03T04:28:34;18.90;99.90
21197;DHT22;10756;51.014;3.786;2022-08-03T04:31:05;19.00;99.90
21197;DHT22;10756;51.014;3.786;2022-08-03T04:33:33;18.90;99.90
21197;DHT22;10756;51.014;3.786;2022-08-03T04:36:01;19.00;99.90
21197;DHT22;10756;51.014;3.786;2022-08-03T04:38:37;19.00;99.90
21197;DHT22;10756;51.014;3.786;2022-08-03T04:41:05;19.00;99.90
21197;DHT22;10756;51.014;3.786;2022-08-03T04:43:32;19.10;99.90
21197;DHT22;10756;51.014;3.786;2022-08-03T04:45:59;19.30;99.90
21197;DHT22;10756;51.014;3.786;2022-08-03T04:48:25;19.30;99.90
21197;DHT22;10756;51.014;3.786;2022-08-03T04:50:52;19.40;99.90
21197;DHT22;10756;51.014;3.786;2022-08-03T04:53:18;19.40;99.90
21197;DHT22;10756;51.014;3.786;2022-08-03T04:55:43;19.40;99.90
21197;DHT22;10756;51.014;3.786;2022-08-03T04:58:09;19.50;99.90
21197;DHT22;10756;51.014;3.786;2022-08-03T05:00:35;19.60;99.90
21197;DHT22;10756;51.014;3.786;2022-08-03T05:03:00;19.70;99.90
21197;DHT22;10756;51.014;3.786;2022-08-03T05:05:26;19.70;99.90
21197;DHT22;10756;51.014;3.786;2022-08-03T05:07:52;19.50;99.90
21197;DHT22;10756;51.014;3.786;2022-08-03T05:10:17;19.50;99.90
21197;DHT22;10756;51.014;3.786;2022-08-03T05:12:44;19.80;99.90
21197;DHT22;10756;51.014;3.786;2022-08-03T05:15:10;19.80;99.90
21197;DHT22;10756;51.014;3.786;2022-08-03T05:17:36;19.90;99.90
21197;DHT22;10756;51.014;3.786;2022-08-03T05:20:02;19.90;99.90
21197;DHT22;10756;51.014;3.786;2022-08-03T05:22:28;19.80;99.90
21197;DHT22;10756;51.014;3.786;2022-08-03T05:24:54;19.70;99.90
21197;DHT22;10756;51.014;3.786;2022-08-03T05:27:20;19.80;99.90
21197;DHT22;10756;51.014;3.786;2022-08-03T05:29:47;19.90;99.90
21197;DHT22;10756;51.014;3.786;2022-08-03T05:32:13;20.00;99.90
21197;DHT22;10756;51.014;3.786;2022-08-03T05:34:39;20.20;99.90
21197;DHT22;10756;51.014;3.786;2022-08-03T05:37:04;20.10;99.90
21197;DHT22;10756;51.014;3.786;2022-08-03T05:39:32;20.10;99.90
21197;DHT22;10756;51.014;3.786;2022-08-03T05:41:57;20.10;99.90
21197;DHT22;10756;51.014;3.786;2022-08-03T05:44:23;19.90;99.90
21197;DHT22;10756;51.014;3.786;2022-08-03T05:46:52;20.20;99.90
21197;DHT22;10756;51.014;3.786;2022-08-03T05:49:18;20.20;99.90
21197;DHT22;10756;51.014;3.786;2022-08-03T05:51:44;20.30;99.90
21197;DHT22;10756;51.014;3.786;2022-08-03T05:54:10;20.30;99.90
21197;DHT22;10756;51.014;3.786;2022-08-03T05:56:36;20.20;99.90
21197;DHT22;10756;51.014;3.786;2022-08-03T05:59:02;20.10;99.90
21197;DHT22;10756;51.014;3.786;2022-08-03T06:01:28;20.10;99.90
21197;DHT22;10756;51.014;3.786;2022-08-03T06:04:10;20.20;99.90
21197;DHT22;10756;51.014;3.786;2022-08-03T06:06:36;20.20;99.90
21197;DHT22;10756;51.014;3.786;2022-08-03T06:09:02;20.30;99.90
21197;DHT22;10756;51.014;3.786;2022-08-03T06:11:27;20.50;99.90
21197;DHT22;10756;51.014;3.786;2022-08-03T06:13:53;20.40;99.90
21197;DHT22;10756;51.014;3.786;2022-08-03T06:16:18;20.40;99.90
21197;DHT22;10756;51.014;3.786;2022-08-03T06:18:44;20.50;99.90
21197;DHT22;10756;51.014;3.786;2022-08-03T06:21:13;20.60;99.90
21197;DHT22;10756;51.014;3.786;2022-08-03T06:23:43;20.70;99.90
21197;DHT22;10756;51.014;3.786;2022-08-03T06:29:24;20.60;99.90
21197;DHT22;10756;51.014;3.786;2022-08-03T06:35:10;20.70;99.90
21197;DHT22;10756;51.014;3.786;2022-08-03T06:37:45;20.90;99.90
21197;DHT22;10756;51.014;3.786;2022-08-03T06:43:40;21.00;99.90
21197;DHT22;10756;51.014;3.786;2022-08-03T06:46:10;21.20;99.90
21197;DHT22;10756;51.014;3.786;2022-08-03T06:49:00;21.20;99.90
21197;DHT22;10756;51.014;3.786;2022-08-03T06:51:31;21.30;99.90
21197;DHT22;10756;51.014;3.786;2022-08-03T06:57:16;21.60;99.90
21197;DHT22;10756;51.014;3.786;2022-08-03T07:02:47;21.80;99.90
21197;DHT22;10756;51.014;3.786;2022-08-03T07:05:13;21.90;99.90
21197;DHT22;10756;51.014;3.786;2022-08-03T07:07:39;21.80;99.90
21197;DHT22;10756;51.014;3.786;2022-08-03T07:10:07;21.80;99.90
21197;DHT22;10756;51.014;3.786;2022-08-03T07:12:39;21.80;99.90
21197;DHT22;10756;51.014;3.786;2022-08-03T07:15:35;21.80;99.90
21197;DHT22;10756;51.014;3.786;2022-08-03T07:18:24;21.90;99.90
21197;DHT22;10756;51.014;3.786;2022-08-03T07:20:59;22.20;99.90
21197;DHT22;10756;51.014;3.786;2022-08-03T07:23:31;22.20;99.90
21197;DHT22;10756;51.014;3.786;2022-08-03T07:25:56;22.10;99.90
21197;DHT22;10756;51.014;3.786;2022-08-03T07:28:31;22.10;99.90
21197;DHT22;10756;51.014;3.786;2022-08-03T07:30:59;22.10;99.90
21197;DHT22;10756;51.014;3.786;2022-08-03T07:33:25;22.20;99.90
21197;DHT22;10756;51.014;3.786;2022-08-03T07:35:51;22.20;99.90
21197;DHT22;10756;51.014;3.786;2022-08-03T07:38:16;22.20;99.90
21197;DHT22;10756;51.014;3.786;2022-08-03T07:43:41;22.40;99.90
21197;DHT22;10756;51.014;3.786;2022-08-03T07:46:13;22.50;99.90
21197;DHT22;10756;51.014;3.786;2022-08-03T07:48:39;22.60;99.90
21197;DHT22;10756;51.014;3.786;2022-08-03T07:51:23;22.70;99.90
21197;DHT22;10756;51.014;3.786;2022-08-03T07:53:55;22.60;99.90
21197;DHT22;10756;51.014;3.786;2022-08-03T07:56:22;22.80;99.90
21197;DHT22;10756;51.014;3.786;2022-08-03T07:58:55;22.80;99.90
21197;DHT22;10756;51.014;3.786;2022-08-03T08:01:21;22.90;99.90
21197;DHT22;10756;51.014;3.786;2022-08-03T08:04:03;23.00;99.90
21197;DHT22;10756;51.014;3.786;2022-08-03T08:06:32;23.10;99.90
21197;DHT22;10756;51.014;3.786;2022-08-03T08:08:57;23.00;99.90
21197;DHT22;10756;51.014;3.786;2022-08-03T08:11:26;23.00;99.90
21197;DHT22;10756;51.014;3.786;2022-08-03T08:14:00;23.00;99.90
21197;DHT22;10756;51.014;3.786;2022-08-03T08:16:30;23.10;99.90
21197;DHT22;10756;51.014;3.786;2022-08-03T08:18:59;23.20;99.90
21197;DHT22;10756;51.014;3.786;2022-08-03T08:21:53;23.30;99.90
21197;DHT22;10756;51.014;3.786;2022-08-03T08:24:28;23.30;99.90
21197;DHT22;10756;51.014;3.786;2022-08-03T08:30:20;23.70;99.90
21197;DHT22;10756;51.014;3.786;2022-08-03T08:33:14;24.20;99.90
21197;DHT22;10756;51.014;3.786;2022-08-03T08:39:01;24.20;99.90
21197;DHT22;10756;51.014;3.786;2022-08-03T08:41:27;24.50;99.90
21197;DHT22;10756;51.014;3.786;2022-08-03T08:43:59;24.60;99.90
21197;DHT22;10756;51.014;3.786;2022-08-03T08:46:24;24.40;99.90
21197;DHT22;10756;51.014;3.786;2022-08-03T08:48:54;24.40;99.90
21197;DHT22;10756;51.014;3.786;2022-08-03T08:54:33;24.70;99.90
21197;DHT22;10756;51.014;3.786;2022-08-03T08:57:03;24.70;99.90
21197;DHT22;10756;51.014;3.786;2022-08-03T08:59:33;24.70;99.90
21197;DHT22;10756;51.014;3.786;2022-08-03T09:01:59;24.90;99.90
21197;DHT22;10756;51.014;3.786;2022-08-03T09:04:27;25.20;99.90
21197;DHT22;10756;51.014;3.786;2022-08-03T09:06:56;25.30;99.90
21197;DHT22;10756;51.014;3.786;2022-08-03T09:09:25;25.30;99.90
21197;DHT22;10756;51.014;3.786;2022-08-03T09:12:03;25.20;99.90
21197;DHT22;10756;51.014;3.786;2022-08-03T09:14:47;25.20;99.90
21197;DHT22;10756;51.014;3.786;2022-08-03T09:17:42;25.50;99.90
21197;DHT22;10756;51.014;3.786;2022-08-03T09:20:52;25.80;99.90
21197;DHT22;10756;51.014;3.786;2022-08-03T09:24:28;26.00;99.90
21197;DHT22;10756;51.014;3.786;2022-08-03T09:26:36;26.00;99.90
21197;DHT22;10756;51.014;3.786;2022-08-03T09:35:13;26.30;99.90
21197;DHT22;10756;51.014;3.786;2022-08-03T09:40:35;26.30;99.90
21197;DHT22;10756;51.014;3.786;2022-08-03T09:43:09;26.20;99.90
21197;DHT22;10756;51.014;3.786;2022-08-03T09:45:42;26.50;99.90
21197;DHT22;10756;51.014;3.786;2022-08-03T09:48:29;26.70;99.90
21197;DHT22;10756;51.014;3.786;2022-08-03T09:51:19;26.60;99.90
21197;DHT22;10756;51.014;3.786;2022-08-03T09:54:23;26.70;99.90
21197;DHT22;10756;51.014;3.786;2022-08-03T10:03:57;27.10;99.90
21197;DHT22;10756;51.014;3.786;2022-08-03T10:13:02;27.70;99.90
21197;DHT22;10756;51.014;3.786;2022-08-03T10:15:54;27.70;99.90
21197;DHT22;10756;51.014;3.786;2022-08-03T10:18:46;28.00;99.90
21197;DHT22;10756;51.014;3.786;2022-08-03T10:21:19;28.20;99.90
21197;DHT22;10756;51.014;3.786;2022-08-03T10:23:50;28.60;99.90
21197;DHT22;10756;51.014;3.786;2022-08-03T10:30:14;28.40;99.90
21197;DHT22;10756;51.014;3.786;2022-08-03T10:33:22;28.50;99.90
21197;DHT22;10756;51.014;3.786;2022-08-03T10:35:55;28.50;99.90
21197;DHT22;10756;51.014;3.786;2022-08-03T10:41:58;28.80;99.90
21197;DHT22;10756;51.014;3.786;2022-08-03T10:44:31;28.70;99.90
21197;DHT22;10756;51.014;3.786;2022-08-03T10:47:01;29.00;99.90
21197;DHT22;10756;51.014;3.786;2022-08-03T10:49:30;29.00;99.90
21197;DHT22;10756;51.014;3.786;2022-08-03T10:52:52;29.20;99.90
21197;DHT22;10756;51.014;3.786;2022-08-03T10:55:56;29.10;99.90
21197;DHT22;10756;51.014;3.786;2022-08-03T11:01:57;29.10;99.90
21197;DHT22;10756;51.014;3.786;2022-08-03T11:05:23;28.90;99.90
21197;DHT22;10756;51.014;3.786;2022-08-03T11:10:57;29.10;99.90
21197;DHT22;10756;51.014;3.786;2022-08-03T11:14:07;29.50;99.90
21197;DHT22;10756;51.014;3.786;2022-08-03T11:17:17;29.70;99.90
21197;DHT22;10756;51.014;3.786;2022-08-03T11:19:57;30.70;99.90
21197;DHT22;10756;51.014;3.786;2022-08-03T11:31:44;34.70;99.90
21197;DHT22;10756;51.014;3.786;2022-08-03T11:37:36;35.10;99.90
21197;DHT22;10756;51.014;3.786;2022-08-03T11:40:39;35.10;99.90
21197;DHT22;10756;51.014;3.786;2022-08-03T11:48:53;33.50;99.90
21197;DHT22;10756;51.014;3.786;2022-08-03T11:51:55;33.70;99.90
21197;DHT22;10756;51.014;3.786;2022-08-03T11:54:22;34.70;99.90
21197;DHT22;10756;51.014;3.786;2022-08-03T11:56:52;35.20;99.90
21197;DHT22;10756;51.014;3.786;2022-08-03T11:59:17;35.80;99.90
21197;DHT22;10756;51.014;3.786;2022-08-03T12:05:14;35.90;99.90
21197;DHT22;10756;51.014;3.786;2022-08-03T12:07:47;36.30;99.90
21197;DHT22;10756;51.014;3.786;2022-08-03T12:10:20;37.00;99.90
21197;DHT22;10756;51.014;3.786;2022-08-03T12:13:05;37.40;99.40
21197;DHT22;10756;51.014;3.786;2022-08-03T12:15:36;37.60;97.90
21197;DHT22;10756;51.014;3.786;2022-08-03T12:18:11;37.80;97.00
21197;DHT22;10756;51.014;3.786;2022-08-03T12:20:48;38.40;96.00
21197;DHT22;10756;51.014;3.786;2022-08-03T12:23:14;38.40;94.60
21197;DHT22;10756;51.014;3.786;2022-08-03T12:26:01;37.60;94.20
21197;DHT22;10756;51.014;3.786;2022-08-03T12:28:46;38.00;93.80
21197;DHT22;10756;51.014;3.786;2022-08-03T12:31:36;38.60;92.20
21197;DHT22;10756;51.014;3.786;2022-08-03T12:34:04;38.80;91.50
21197;DHT22;10756;51.014;3.786;2022-08-03T12:36:34;37.30;92.50
21197;DHT22;10756;51.014;3.786;2022-08-03T12:39:09;37.20;92.40
21197;DHT22;10756;51.014;3.786;2022-08-03T12:44:41;37.10;93.00
21197;DHT22;10756;51.014;3.786;2022-08-03T12:47:16;37.70;91.00
21197;DHT22;10756;51.014;3.786;2022-08-03T12:49:51;36.90;91.80
21197;DHT22;10756;51.014;3.786;2022-08-03T12:52:41;36.80;91.90
21197;DHT22;10756;51.014;3.786;2022-08-03T12:55:18;37.30;91.50
21197;DHT22;10756;51.014;3.786;2022-08-03T12:57:48;38.10;90.70
21197;DHT22;10756;51.014;3.786;2022-08-03T13:06:27;38.80;87.30
21197;DHT22;10756;51.014;3.786;2022-08-03T13:09:04;38.90;85.00
21197;DHT22;10756;51.014;3.786;2022-08-03T13:11:33;38.70;85.40
21197;DHT22;10756;51.014;3.786;2022-08-03T13:14:11;39.10;85.30
21197;DHT22;10756;51.014;3.786;2022-08-03T13:20:08;39.70;81.50
21197;DHT22;10756;51.014;3.786;2022-08-03T13:25:55;36.60;85.30
21197;DHT22;10756;51.014;3.786;2022-08-03T13:28:33;37.30;85.10
21197;DHT22;10756;51.014;3.786;2022-08-03T13:31:12;38.40;84.50
21197;DHT22;10756;51.014;3.786;2022-08-03T13:33:48;38.40;82.10
21197;DHT22;10756;51.014;3.786;2022-08-03T13:36:19;38.50;81.50
21197;DHT22;10756;51.014;3.786;2022-08-03T13:48:49;41.20;76.30
21197;DHT22;10756;51.014;3.786;2022-08-03T13:51:17;42.80;71.50
21197;DHT22;10756;51.014;3.786;2022-08-03T13:53:46;42.30;70.00
21197;DHT22;10756;51.014;3.786;2022-08-03T13:59:39;40.40;71.00
21197;DHT22;10756;51.014;3.786;2022-08-03T14:02:04;41.70;69.60
21197;DHT22;10756;51.014;3.786;2022-08-03T14:08:39;39.70;71.10
21197;DHT22;10756;51.014;3.786;2022-08-03T14:11:25;38.00;74.20
21197;DHT22;10756;51.014;3.786;2022-08-03T14:13:54;38.20;75.10
21197;DHT22;10756;51.014;3.786;2022-08-03T14:16:20;39.20;73.10
21197;DHT22;10756;51.014;3.786;2022-08-03T14:18:57;39.20;73.00
21197;DHT22;10756;51.014;3.786;2022-08-03T14:28:07;43.90;64.80
21197;DHT22;10756;51.014;3.786;2022-08-03T14:34:24;41.90;61.20
21197;DHT22;10756;51.014;3.786;2022-08-03T14:37:03;40.80;63.90
21197;DHT22;10756;51.014;3.786;2022-08-03T14:39:38;40.80;64.00
21197;DHT22;10756;51.014;3.786;2022-08-03T14:45:46;41.10;64.00
21197;DHT22;10756;51.014;3.786;2022-08-03T14:48:44;41.90;62.60
21197;DHT22;10756;51.014;3.786;2022-08-03T14:51:12;42.40;62.30
21197;DHT22;10756;51.014;3.786;2022-08-03T14:54:04;42.10;60.70
21197;DHT22;10756;51.014;3.786;2022-08-03T14:56:50;43.10;59.30
21197;DHT22;10756;51.014;3.786;2022-08-03T14:59:16;41.50;60.10
21197;DHT22;10756;51.014;3.786;2022-08-03T15:01:42;40.90;61.90
21197;DHT22;10756;51.014;3.786;2022-08-03T15:07:11;40.40;63.20
21197;DHT22;10756;51.014;3.786;2022-08-03T15:10:08;40.90;63.30
21197;DHT22;10756;51.014;3.786;2022-08-03T15:12:36;41.60;60.90
21197;DHT22;10756;51.014;3.786;2022-08-03T15:18:17;41.50;60.80
21197;DHT22;10756;51.014;3.786;2022-08-03T15:21:05;42.40;59.50
21197;DHT22;10756;51.014;3.786;2022-08-03T15:27:40;44.10;56.90
21197;DHT22;10756;51.014;3.786;2022-08-03T15:30:19;45.60;54.40
21197;DHT22;10756;51.014;3.786;2022-08-03T15:36:19;45.90;52.40
21197;DHT22;10756;51.014;3.786;2022-08-03T15:42:24;44.10;54.00
21197;DHT22;10756;51.014;3.786;2022-08-03T15:48:12;40.90;55.90
21197;DHT22;10756;51.014;3.786;2022-08-03T15:50:58;39.10;58.60
21197;DHT22;10756;51.014;3.786;2022-08-03T15:54:03;38.30;60.00
21197;DHT22;10756;51.014;3.786;2022-08-03T15:57:22;38.20;60.30
21197;DHT22;10756;51.014;3.786;2022-08-03T16:09:54;44.10;53.80
21197;DHT22;10756;51.014;3.786;2022-08-03T16:12:20;44.70;52.40
21197;DHT22;10756;51.014;3.786;2022-08-03T16:14:52;44.20;52.10
21197;DHT22;10756;51.014;3.786;2022-08-03T16:24:15;44.30;51.90
21197;DHT22;10756;51.014;3.786;2022-08-03T16:27:14;45.40;50.30
21197;DHT22;10756;51.014;3.786;2022-08-03T16:33:10;42.70;52.40
21197;DHT22;10756;51.014;3.786;2022-08-03T16:35:37;41.90;53.20
21197;DHT22;10756;51.014;3.786;2022-08-03T16:41:48;42.00;53.60
21197;DHT22;10756;51.014;3.786;2022-08-03T16:47:25;41.00;54.60
21197;DHT22;10756;51.014;3.786;2022-08-03T16:53:12;39.00;57.40
21197;DHT22;10756;51.014;3.786;2022-08-03T17:06:04;43.80;55.30
21197;DHT22;10756;51.014;3.786;2022-08-03T17:08:38;43.70;58.10
21197;DHT22;10756;51.014;3.786;2022-08-03T17:24:56;39.30;66.80
21197;DHT22;10756;51.014;3.786;2022-08-03T17:27:43;38.40;69.40
21197;DHT22;10756;51.014;3.786;2022-08-03T17:40:39;36.10;75.90
21197;DHT22;10756;51.014;3.786;2022-08-03T17:43:39;35.50;77.50
21197;DHT22;10756;51.014;3.786;2022-08-03T17:46:09;35.00;78.70
21197;DHT22;10756;51.014;3.786;2022-08-03T17:48:37;34.80;79.50
21197;DHT22;10756;51.014;3.786;2022-08-03T17:51:39;34.60;80.40
21197;DHT22;10756;51.014;3.786;2022-08-03T18:00:21;34.50;81.80
21197;DHT22;10756;51.014;3.786;2022-08-03T18:12:57;33.30;87.20
21197;DHT22;10756;51.014;3.786;2022-08-03T19:04:49;30.20;98.90
21197;DHT22;10756;51.014;3.786;2022-08-03T19:07:26;30.20;99.40
21197;DHT22;10756;51.014;3.786;2022-08-03T19:10:05;29.80;99.90
21197;DHT22;10756;51.014;3.786;2022-08-03T19:12:44;29.70;99.90
21197;DHT22;10756;51.014;3.786;2022-08-03T19:15:14;29.40;99.90
21197;DHT22;10756;51.014;3.786;2022-08-03T19:17:47;29.40;99.90
21197;DHT22;10756;51.014;3.786;2022-08-03T19:20:23;29.40;99.90
21197;DHT22;10756;51.014;3.786;2022-08-03T19:22:50;29.20;99.90
21197;DHT22;10756;51.014;3.786;2022-08-03T19:25:16;28.90;99.90
21197;DHT22;10756;51.014;3.786;2022-08-03T19:27:44;28.80;99.90
21197;DHT22;10756;51.014;3.786;2022-08-03T19:30:10;28.70;99.90
21197;DHT22;10756;51.014;3.786;2022-08-03T19:32:58;28.60;99.90
21197;DHT22;10756;51.014;3.786;2022-08-03T19:35:24;28.50;99.90
21197;DHT22;10756;51.014;3.786;2022-08-03T19:37:50;28.40;99.90
21197;DHT22;10756;51.014;3.786;2022-08-03T19:40:16;28.20;99.90
21197;DHT22;10756;51.014;3.786;2022-08-03T19:42:44;27.80;99.90
21197;DHT22;10756;51.014;3.786;2022-08-03T19:45:15;27.80;99.90
21197;DHT22;10756;51.014;3.786;2022-08-03T19:47:44;27.60;99.90
21197;DHT22;10756;51.014;3.786;2022-08-03T19:50:12;27.50;99.90
21197;DHT22;10756;51.014;3.786;2022-08-03T19:52:39;27.60;99.90
21197;DHT22;10756;51.014;3.786;2022-08-03T19:55:09;27.40;99.90
21197;DHT22;10756;51.014;3.786;2022-08-03T19:57:36;27.30;99.90
21197;DHT22;10756;51.014;3.786;2022-08-03T20:00:07;27.30;99.90
21197;DHT22;10756;51.014;3.786;2022-08-03T20:02:34;27.10;99.90
21197;DHT22;10756;51.014;3.786;2022-08-03T20:05:00;27.00;99.90
21197;DHT22;10756;51.014;3.786;2022-08-03T20:07:26;26.80;99.90
21197;DHT22;10756;51.014;3.786;2022-08-03T20:09:53;26.70;99.90
21197;DHT22;10756;51.014;3.786;2022-08-03T20:12:20;26.70;99.90
21197;DHT22;10756;51.014;3.786;2022-08-03T20:14:46;26.60;99.90
21197;DHT22;10756;51.014;3.786;2022-08-03T20:17:13;26.30;99.90
21197;DHT22;10756;51.014;3.786;2022-08-03T20:19:39;26.20;99.90
21197;DHT22;10756;51.014;3.786;2022-08-03T20:22:08;26.20;99.90
21197;DHT22;10756;51.014;3.786;2022-08-03T20:24:35;26.30;99.90
21197;DHT22;10756;51.014;3.786;2022-08-03T20:27:03;26.20;99.90
21197;DHT22;10756;51.014;3.786;2022-08-03T20:29:35;25.90;99.90
21197;DHT22;10756;51.014;3.786;2022-08-03T20:32:01;25.90;99.90
21197;DHT22;10756;51.014;3.786;2022-08-03T20:34:27;25.80;99.90
21197;DHT22;10756;51.014;3.786;2022-08-03T20:36:55;25.80;99.90
21197;DHT22;10756;51.014;3.786;2022-08-03T20:39:21;25.60;99.90
21197;DHT22;10756;51.014;3.786;2022-08-03T20:41:47;25.50;99.90
21197;DHT22;10756;51.014;3.786;2022-08-03T20:44:12;25.40;99.90
21197;DHT22;10756;51.014;3.786;2022-08-03T20:46:38;25.40;99.90
21197;DHT22;10756;51.014;3.786;2022-08-03T20:49:04;25.40;99.90
21197;DHT22;10756;51.014;3.786;2022-08-03T20:51:32;25.20;99.90
21197;DHT22;10756;51.014;3.786;2022-08-03T20:53:58;25.20;99.90
21197;DHT22;10756;51.014;3.786;2022-08-03T20:56:25;25.20;99.90
21197;DHT22;10756;51.014;3.786;2022-08-03T20:58:53;25.20;99.90
21197;DHT22;10756;51.014;3.786;2022-08-03T21:01:19;25.40;99.90